createdAt,value
2023-03-08T00:02:17.188Z,2.63
2023-03-08T00:04:44.363Z,2.28
2023-03-08T00:07:11.645Z,2.80
2023-03-08T00:09:38.824Z,2.20
2023-03-08T00:12:07.362Z,2.90
2023-03-08T00:14:34.408Z,2.60
2023-03-08T00:17:02.609Z,4.95
2023-03-08T00:19:29.983Z,3.10
2023-03-08T00:21:58.542Z,2.58
2023-03-08T00:24:25.624Z,3.97
2023-03-08T00:26:52.722Z,2.50
2023-03-08T00:29:19.807Z,2.55
2023-03-08T00:31:47.075Z,2.63
2023-03-08T00:34:14.491Z,2.03
2023-03-08T00:36:41.738Z,1.70
2023-03-08T00:39:09.947Z,1.88
2023-03-08T00:41:37.533Z,1.92
2023-03-08T00:44:04.666Z,1.73
2023-03-08T00:46:31.944Z,2.55
2023-03-08T00:48:59.865Z,3.20
2023-03-08T00:51:27.432Z,2.35
2023-03-08T00:53:54.571Z,3.33
2023-03-08T00:56:22.118Z,3.25
2023-03-08T00:58:49.205Z,2.28
2023-03-08T01:01:18.462Z,2.10
2023-03-08T01:03:45.753Z,2.28
2023-03-08T01:06:14.822Z,1.80
2023-03-08T01:08:42.291Z,2.17
2023-03-08T01:11:25.436Z,2.03
2023-03-08T01:13:53.610Z,1.67
2023-03-08T01:16:27.428Z,1.55
2023-03-08T01:18:55.546Z,2.38
2023-03-08T01:21:24.113Z,2.10
2023-03-08T01:23:51.256Z,2.42
2023-03-08T01:26:20.929Z,2.58
2023-03-08T01:28:48.876Z,2.40
2023-03-08T01:31:28.960Z,2.22
2023-03-08T01:33:57.965Z,2.65
2023-03-08T01:36:27.872Z,3.88
2023-03-08T01:38:55.461Z,3.45
2023-03-08T01:41:29.041Z,2.95
2023-03-08T01:46:23.127Z,2.67
2023-03-08T01:48:55.745Z,3.10
2023-03-08T01:51:31.244Z,2.58
2023-03-08T01:54:02.015Z,2.65
2023-03-08T01:56:29.466Z,3.85
2023-03-08T01:58:58.016Z,3.92
2023-03-08T02:01:25.093Z,4.15
2023-03-08T02:03:52.317Z,4.28
2023-03-08T02:06:20.653Z,3.40
2023-03-08T02:08:47.982Z,3.78
2023-03-08T02:11:17.275Z,4.43
2023-03-08T02:13:44.703Z,4.10
2023-03-08T02:16:14.750Z,3.85
2023-03-08T02:18:57.582Z,4.55
2023-03-08T02:21:26.315Z,4.32
2023-03-08T02:23:53.869Z,3.75
2023-03-08T02:26:21.224Z,4.60
2023-03-08T02:28:48.502Z,4.60
2023-03-08T02:31:15.828Z,4.53
2023-03-08T02:33:42.879Z,4.38
2023-03-08T02:36:10.789Z,4.43
2023-03-08T02:38:38.011Z,5.47
2023-03-08T02:41:05.342Z,5.22
2023-03-08T02:43:32.433Z,5.68
2023-03-08T02:45:59.474Z,6.82
2023-03-08T02:48:26.546Z,5.65
2023-03-08T02:50:53.567Z,6.53
2023-03-08T02:53:20.645Z,5.40
2023-03-08T02:55:47.797Z,6.57
2023-03-08T02:58:14.963Z,7.05
2023-03-08T03:00:42.015Z,6.60
2023-03-08T03:03:09.086Z,7.70
2023-03-08T03:05:41.172Z,8.25
2023-03-08T03:08:08.409Z,7.40
2023-03-08T03:10:36.668Z,8.07
2023-03-08T03:13:04.967Z,8.68
2023-03-08T03:15:32.066Z,7.93
2023-03-08T03:18:00.152Z,8.25
2023-03-08T03:20:27.533Z,8.63
2023-03-08T03:22:54.622Z,8.43
2023-03-08T03:25:21.675Z,9.18
2023-03-08T03:27:48.798Z,9.65
2023-03-08T03:30:15.951Z,9.60
2023-03-08T03:32:43.184Z,9.18
2023-03-08T03:35:10.344Z,9.82
2023-03-08T03:37:37.499Z,10.07
2023-03-08T03:40:05.894Z,11.73
2023-03-08T03:42:32.940Z,10.75
2023-03-08T03:44:59.998Z,12.02
2023-03-08T03:47:27.834Z,12.18
2023-03-08T03:49:54.899Z,12.20
2023-03-08T03:52:21.979Z,12.10
2023-03-08T03:54:49.055Z,12.10
2023-03-08T03:57:16.057Z,13.98
2023-03-08T03:59:43.095Z,13.77
2023-03-08T04:02:11.062Z,14.48
2023-03-08T04:04:38.122Z,14.85
2023-03-08T04:07:05.219Z,15.57
2023-03-08T04:09:32.329Z,16.73
2023-03-08T04:12:02.564Z,15.60
2023-03-08T04:14:29.644Z,13.63
2023-03-08T04:16:56.713Z,14.20
2023-03-08T04:19:23.846Z,14.93
2023-03-08T04:21:51.314Z,17.23
2023-03-08T04:24:18.393Z,14.77
2023-03-08T04:26:45.526Z,16.33
2023-03-08T04:29:12.601Z,17.02
2023-03-08T04:31:39.671Z,15.27
2023-03-08T04:34:07.053Z,16.42
2023-03-08T04:36:34.271Z,16.65
2023-03-08T04:39:01.440Z,17.75
2023-03-08T04:41:29.491Z,15.75
2023-03-08T04:43:58.640Z,16.23
2023-03-08T04:46:28.635Z,16.30
2023-03-08T04:48:56.163Z,16.98
2023-03-08T04:51:27.649Z,16.90
2023-03-08T04:53:54.969Z,18.15
2023-03-08T04:56:22.016Z,18.60
2023-03-08T04:58:49.504Z,20.25
2023-03-08T05:01:22.349Z,20.38
2023-03-08T05:03:49.871Z,19.60
2023-03-08T05:06:17.502Z,18.77
2023-03-08T05:08:44.965Z,18.77
2023-03-08T05:11:21.243Z,21.58
2023-03-08T05:13:49.408Z,18.63
2023-03-08T05:16:16.876Z,23.73
2023-03-08T05:18:44.532Z,23.17
2023-03-08T05:21:15.297Z,21.52
2023-03-08T05:23:42.561Z,19.83
2023-03-08T05:26:15.257Z,26.67
2023-03-08T05:28:43.355Z,24.03
2023-03-08T05:31:16.526Z,26.95
2023-03-08T05:33:46.551Z,23.75
2023-03-08T05:36:14.914Z,22.42
2023-03-08T05:38:43.061Z,23.40
2023-03-08T05:41:14.118Z,24.45
2023-03-08T05:43:41.727Z,23.23
2023-03-08T05:46:12.230Z,25.60
2023-03-08T05:48:39.816Z,24.63
2023-03-08T05:51:09.099Z,23.10
2023-03-08T05:53:36.782Z,25.20
2023-03-08T05:56:30.119Z,26.92
2023-03-08T05:58:57.376Z,25.42
2023-03-08T06:01:27.371Z,23.77
2023-03-08T06:03:58.365Z,22.55
2023-03-08T06:06:28.491Z,23.70
2023-03-08T06:08:56.319Z,24.30
2023-03-08T06:11:24.813Z,24.58
2023-03-08T06:13:51.982Z,23.63
2023-03-08T06:16:19.159Z,24.27
2023-03-08T06:18:46.304Z,24.77
2023-03-08T06:21:18.584Z,23.88
2023-03-08T06:23:46.160Z,24.02
2023-03-08T06:26:14.448Z,21.48
2023-03-08T06:28:41.934Z,23.13
2023-03-08T06:31:12.808Z,23.92
2023-03-08T06:33:40.096Z,22.08
2023-03-08T06:36:13.911Z,23.52
2023-03-08T06:38:41.556Z,22.25
2023-03-08T06:41:10.821Z,24.33
2023-03-08T06:43:38.090Z,24.45
2023-03-08T06:46:06.734Z,22.05
2023-03-08T06:48:35.119Z,22.13
2023-03-08T06:51:05.773Z,22.40
2023-03-08T06:53:36.006Z,22.65
2023-03-08T06:56:03.908Z,21.52
2023-03-08T06:58:31.843Z,23.23
2023-03-08T07:01:04.354Z,23.25
2023-03-08T07:03:32.778Z,25.55
2023-03-08T07:06:08.057Z,22.48
2023-03-08T07:08:36.225Z,23.15
2023-03-08T07:11:03.727Z,23.00
2023-03-08T07:13:30.824Z,23.35
2023-03-08T07:15:58.957Z,23.85
2023-03-08T07:18:26.030Z,24.05
2023-03-08T07:20:53.910Z,24.95
2023-03-08T07:23:20.975Z,24.58
2023-03-08T07:25:48.011Z,27.00
2023-03-08T07:28:15.038Z,23.15
2023-03-08T07:30:49.516Z,26.50
2023-03-08T07:33:17.388Z,26.05
2023-03-08T07:35:44.529Z,27.38
2023-03-08T07:38:14.509Z,28.30
2023-03-08T07:40:41.950Z,26.45
2023-03-08T07:43:09.505Z,27.13
2023-03-08T07:45:39.586Z,27.52
2023-03-08T07:48:06.837Z,24.67
2023-03-08T07:50:34.035Z,25.67
2023-03-08T07:53:01.474Z,25.17
2023-03-08T07:55:28.718Z,25.95
2023-03-08T07:57:55.861Z,25.52
2023-03-08T08:00:23.180Z,25.52
2023-03-08T08:02:53.914Z,25.48
2023-03-08T08:05:24.437Z,25.00
2023-03-08T08:07:51.662Z,25.98
2023-03-08T08:10:18.767Z,25.80
2023-03-08T08:12:45.823Z,26.60
2023-03-08T08:15:13.076Z,26.90
2023-03-08T08:17:40.226Z,25.38
2023-03-08T08:20:10.435Z,24.38
2023-03-08T08:22:37.573Z,26.67
2023-03-08T08:25:06.636Z,26.40
2023-03-08T08:27:36.615Z,23.75
2023-03-08T08:30:05.370Z,23.00
2023-03-08T08:32:34.524Z,23.08
2023-03-08T08:35:01.643Z,23.20
2023-03-08T08:37:30.273Z,23.35
2023-03-08T08:39:58.162Z,22.83
2023-03-08T08:42:25.989Z,25.08
2023-03-08T08:44:53.851Z,21.73
2023-03-08T08:47:21.332Z,23.27
2023-03-08T08:49:48.952Z,22.63
2023-03-08T08:52:16.065Z,22.40
2023-03-08T08:54:43.199Z,24.75
2023-03-08T08:57:10.288Z,23.35
2023-03-08T08:59:37.624Z,23.42
2023-03-08T09:02:05.573Z,23.23
2023-03-08T09:04:32.891Z,23.15
2023-03-08T09:06:59.945Z,24.73
2023-03-08T09:09:27.168Z,23.67
2023-03-08T09:11:55.917Z,23.08
2023-03-08T09:14:24.041Z,23.98
2023-03-08T09:16:52.556Z,21.95
2023-03-08T09:19:19.898Z,22.38
2023-03-08T09:21:46.952Z,22.55
2023-03-08T09:24:14.792Z,23.65
2023-03-08T09:26:41.873Z,22.92
2023-03-08T09:29:10.593Z,22.65
2023-03-08T09:31:38.867Z,22.42
2023-03-08T09:34:09.325Z,22.67
2023-03-08T09:36:39.529Z,21.20
2023-03-08T09:39:09.292Z,22.00
2023-03-08T09:41:48.229Z,23.15
2023-03-08T09:44:47.776Z,20.33
2023-03-08T09:47:27.219Z,20.65
2023-03-08T09:49:58.864Z,20.60
2023-03-08T09:52:51.987Z,19.17
2023-03-08T09:55:32.329Z,20.85
2023-03-08T09:58:11.984Z,19.65
2023-03-08T10:00:39.120Z,19.63
2023-03-08T10:03:24.997Z,20.67
2023-03-08T10:06:12.359Z,21.10
2023-03-08T10:08:46.750Z,19.48
2023-03-08T10:11:23.829Z,20.25
2023-03-08T10:13:55.130Z,20.52
2023-03-08T10:16:25.919Z,20.17
2023-03-08T10:18:57.426Z,20.20
2023-03-08T10:21:26.004Z,20.08
2023-03-08T10:24:27.428Z,20.17
2023-03-08T10:27:00.892Z,19.83
2023-03-08T10:29:28.417Z,19.55
2023-03-08T10:31:55.454Z,19.00
2023-03-08T10:34:30.042Z,18.83
2023-03-08T10:37:01.059Z,18.52
2023-03-08T10:39:28.590Z,17.08
2023-03-08T10:42:01.749Z,17.58
2023-03-08T10:44:58.441Z,15.73
2023-03-08T10:47:27.407Z,16.88
2023-03-08T10:50:09.422Z,16.75
2023-03-08T10:52:36.525Z,16.50
2023-03-08T10:55:12.635Z,16.02
2023-03-08T10:57:41.872Z,17.45
2023-03-08T11:00:20.873Z,16.50
2023-03-08T11:02:48.569Z,17.85
2023-03-08T11:05:26.824Z,18.30
2023-03-08T11:07:57.437Z,15.95
2023-03-08T11:10:31.626Z,16.75
2023-03-08T11:13:17.194Z,17.75
2023-03-08T11:15:51.101Z,17.05
2023-03-08T11:19:00.657Z,15.60
2023-03-08T11:21:48.837Z,14.00
2023-03-08T11:24:39.838Z,14.13
2023-03-08T11:27:21.727Z,13.77
2023-03-08T11:30:12.674Z,14.05
2023-03-08T11:33:17.695Z,14.13
2023-03-08T11:36:03.579Z,14.13
2023-03-08T11:38:32.766Z,13.25
2023-03-08T11:41:22.389Z,13.57
2023-03-08T11:44:10.498Z,15.23
2023-03-08T11:46:51.763Z,14.38
2023-03-08T11:49:18.870Z,13.02
2023-03-08T11:51:51.477Z,14.25
2023-03-08T11:54:30.560Z,14.77
2023-03-08T11:57:02.461Z,13.65
2023-03-08T11:59:40.053Z,14.05
2023-03-08T12:02:07.046Z,14.10
2023-03-08T12:04:40.598Z,13.98
2023-03-08T12:10:04.283Z,12.43
2023-03-08T12:12:37.503Z,13.65
2023-03-08T12:15:39.733Z,12.65
2023-03-08T12:18:23.013Z,14.55
2023-03-08T12:20:54.810Z,13.45
2023-03-08T12:23:36.518Z,13.40
2023-03-08T12:26:17.478Z,13.15
2023-03-08T12:28:54.131Z,12.82
2023-03-08T12:31:27.947Z,13.25
2023-03-08T12:33:58.653Z,13.25
2023-03-08T12:36:40.497Z,14.35
2023-03-08T12:39:25.402Z,13.13
2023-03-08T12:42:01.720Z,13.65
2023-03-08T12:44:31.055Z,13.10
2023-03-08T12:47:04.183Z,12.52
2023-03-08T12:49:44.796Z,12.63
2023-03-08T12:52:17.598Z,12.40
2023-03-08T12:55:21.004Z,14.37
2023-03-08T12:57:47.992Z,13.48
2023-03-08T13:00:23.768Z,13.38
2023-03-08T13:03:12.157Z,14.63
2023-03-08T13:05:41.658Z,13.07
2023-03-08T13:08:19.382Z,13.63
2023-03-08T13:10:52.344Z,14.15
2023-03-08T13:13:38.099Z,14.00
2023-03-08T13:16:19.343Z,14.20
2023-03-08T13:18:48.983Z,13.73
2023-03-08T13:21:27.655Z,15.20
2023-03-08T13:24:19.392Z,14.00
2023-03-08T13:26:59.059Z,14.57
2023-03-08T13:29:31.931Z,15.60
2023-03-08T13:32:06.160Z,14.32
2023-03-08T13:34:35.133Z,14.57
2023-03-08T13:37:02.453Z,14.68
2023-03-08T13:39:30.859Z,13.98
2023-03-08T13:42:11.972Z,15.13
2023-03-08T13:44:39.098Z,15.18
2023-03-08T13:47:21.435Z,13.23
2023-03-08T13:49:51.838Z,15.63
2023-03-08T13:52:27.518Z,15.10
2023-03-08T13:55:01.262Z,16.25
2023-03-08T13:57:33.346Z,16.30
2023-03-08T14:00:02.860Z,16.40
2023-03-08T14:02:31.821Z,14.90
2023-03-08T14:04:59.388Z,15.48
2023-03-08T14:07:31.972Z,17.00
2023-03-08T14:09:59.474Z,15.98
2023-03-08T14:12:33.241Z,15.13
2023-03-08T14:15:03.644Z,15.73
2023-03-08T14:17:34.165Z,15.15
2023-03-08T14:20:07.110Z,14.95
2023-03-08T14:22:40.394Z,15.10
2023-03-08T14:25:22.200Z,15.60
2023-03-08T14:27:49.278Z,14.48
2023-03-08T14:30:23.485Z,13.30
2023-03-08T14:33:16.645Z,13.30
2023-03-08T14:35:51.872Z,12.80
2023-03-08T14:38:25.212Z,14.00
2023-03-08T14:40:52.810Z,13.57
2023-03-08T14:43:23.254Z,11.43
2023-03-08T14:46:00.001Z,12.75
2023-03-08T14:48:31.734Z,12.23
2023-03-08T14:51:05.001Z,10.82
2023-03-08T14:53:38.206Z,11.23
2023-03-08T14:56:11.421Z,10.32
2023-03-08T14:58:42.908Z,10.00
2023-03-08T15:01:09.985Z,10.57
2023-03-08T15:03:37.043Z,9.75
2023-03-08T15:06:19.692Z,10.15
2023-03-08T15:08:47.073Z,10.60
2023-03-08T15:11:14.741Z,10.30
2023-03-08T15:13:42.894Z,10.15
2023-03-08T15:16:12.063Z,10.15
2023-03-08T15:18:40.360Z,10.70
2023-03-08T15:21:10.731Z,9.68
2023-03-08T15:23:38.089Z,9.55
2023-03-08T15:26:06.825Z,9.65
2023-03-08T15:28:33.938Z,10.63
2023-03-08T15:31:01.218Z,10.13
2023-03-08T15:33:28.557Z,10.00
2023-03-08T15:35:55.771Z,10.23
2023-03-08T15:38:24.035Z,10.93
2023-03-08T15:40:51.107Z,10.48
2023-03-08T15:43:18.173Z,9.73
2023-03-08T15:45:45.344Z,11.35
2023-03-08T15:48:17.598Z,10.60
2023-03-08T15:50:45.396Z,10.48
2023-03-08T15:53:23.056Z,9.82
2023-03-08T15:55:57.112Z,9.70
2023-03-08T15:58:24.119Z,10.52
2023-03-08T16:00:52.204Z,11.13
2023-03-08T16:03:25.794Z,10.95
2023-03-08T16:05:53.098Z,10.23
2023-03-08T16:08:21.333Z,11.00
2023-03-08T16:10:48.410Z,10.05
2023-03-08T16:13:17.691Z,11.43
2023-03-08T16:15:45.399Z,11.68
2023-03-08T16:18:12.577Z,10.85
2023-03-08T16:20:40.649Z,10.35
2023-03-08T16:23:08.448Z,10.63
2023-03-08T16:25:35.582Z,12.20
2023-03-08T16:28:02.979Z,11.07
2023-03-08T16:30:31.020Z,11.73
2023-03-08T16:32:58.568Z,11.63
2023-03-08T16:35:25.628Z,11.13
2023-03-08T16:37:53.965Z,12.52
2023-03-08T16:40:21.032Z,12.23
2023-03-08T16:42:51.326Z,15.75
2023-03-08T16:45:18.440Z,14.30
2023-03-08T16:47:46.436Z,11.98
2023-03-08T16:50:14.133Z,14.65
2023-03-08T16:52:41.270Z,13.80
2023-03-08T16:55:08.754Z,12.07
2023-03-08T16:57:38.384Z,12.77
2023-03-08T17:00:07.164Z,12.05
2023-03-08T17:02:34.307Z,12.45
2023-03-08T17:05:01.562Z,13.45
2023-03-08T17:07:29.004Z,13.88
2023-03-08T17:09:57.295Z,12.82
2023-03-08T17:12:24.899Z,12.10
2023-03-08T17:14:52.308Z,12.68
2023-03-08T17:17:19.347Z,14.60
2023-03-08T17:19:46.494Z,12.40
2023-03-08T17:22:13.946Z,13.43
2023-03-08T17:24:41.028Z,13.57
2023-03-08T17:27:08.137Z,14.02
2023-03-08T17:29:35.628Z,14.20
2023-03-08T17:32:02.804Z,13.73
2023-03-08T17:34:29.805Z,13.65
2023-03-08T17:36:57.470Z,14.00
2023-03-08T17:39:24.474Z,14.27
2023-03-08T17:41:51.552Z,12.82
2023-03-08T17:44:18.661Z,14.40
2023-03-08T17:46:45.692Z,14.05
2023-03-08T17:49:13.988Z,15.25
2023-03-08T17:51:42.490Z,16.20
2023-03-08T17:54:11.676Z,15.77
2023-03-08T17:56:40.914Z,16.02
2023-03-08T17:59:08.037Z,14.60
2023-03-08T18:01:35.110Z,16.38
2023-03-08T18:04:04.842Z,15.77
2023-03-08T18:06:35.797Z,14.18
2023-03-08T18:09:06.805Z,15.77
2023-03-08T18:11:37.441Z,14.80
2023-03-08T18:14:10.414Z,15.05
2023-03-08T18:16:38.457Z,14.13
2023-03-08T18:19:06.503Z,14.95
2023-03-08T18:21:35.350Z,14.13
2023-03-08T18:24:02.888Z,14.82
2023-03-08T18:26:30.065Z,14.00
2023-03-08T18:28:57.187Z,14.82
2023-03-08T18:31:26.303Z,14.15
2023-03-08T18:33:55.182Z,12.93
2023-03-08T18:36:23.038Z,13.43
2023-03-08T18:38:50.407Z,13.73
2023-03-08T18:41:22.760Z,12.23
2023-03-08T18:43:51.001Z,12.30
2023-03-08T18:46:18.748Z,14.20
2023-03-08T18:48:50.743Z,12.98
2023-03-08T18:51:17.931Z,13.05
2023-03-08T18:53:45.060Z,11.93
2023-03-08T18:56:12.463Z,12.90
2023-03-08T18:58:39.824Z,14.18
2023-03-08T19:01:16.856Z,13.75
2023-03-08T19:03:44.939Z,12.20
2023-03-08T19:06:13.789Z,12.48
2023-03-08T19:08:41.289Z,13.80
2023-03-08T19:11:13.049Z,14.60
2023-03-08T19:13:40.797Z,12.65
2023-03-08T19:16:24.196Z,11.45
2023-03-08T19:18:59.052Z,11.80
2023-03-08T19:21:31.349Z,17.52
2023-03-08T19:23:59.324Z,12.45
2023-03-08T19:26:37.326Z,11.73
2023-03-08T19:29:16.099Z,11.15
2023-03-08T19:31:52.713Z,10.80
2023-03-08T19:34:22.389Z,9.73
2023-03-08T19:36:49.874Z,12.98
2023-03-08T19:39:23.251Z,11.90
2023-03-08T19:41:52.049Z,15.93
2023-03-08T19:44:19.949Z,11.80
2023-03-08T19:46:47.387Z,10.50
2023-03-08T19:49:19.710Z,11.05
2023-03-08T19:51:48.170Z,11.38
2023-03-08T19:54:15.449Z,10.35
2023-03-08T19:56:42.806Z,11.75
2023-03-08T19:59:10.663Z,12.10
2023-03-08T20:01:38.503Z,13.45
2023-03-08T20:04:06.383Z,11.48
2023-03-08T20:06:36.506Z,10.82
2023-03-08T20:09:05.220Z,11.10
2023-03-08T20:11:32.775Z,12.63
2023-03-08T20:14:00.111Z,11.75
2023-03-08T20:16:28.666Z,11.77
2023-03-08T20:18:57.571Z,11.52
2023-03-08T20:21:28.486Z,12.02
2023-03-08T20:23:56.556Z,12.80
2023-03-08T20:26:33.025Z,13.90
2023-03-08T20:29:00.884Z,12.45
2023-03-08T20:31:29.379Z,12.32
2023-03-08T20:33:56.503Z,11.27
2023-03-08T20:36:23.821Z,10.95
2023-03-08T20:38:51.210Z,12.32
2023-03-08T20:41:20.818Z,12.50
2023-03-08T20:43:49.766Z,13.02
2023-03-08T20:46:20.901Z,13.95
2023-03-08T20:48:48.098Z,11.82
2023-03-08T20:51:20.048Z,13.90
2023-03-08T20:53:52.346Z,13.00
2023-03-08T20:56:21.560Z,12.93
2023-03-08T20:58:48.686Z,12.73
2023-03-08T21:01:22.003Z,13.55
2023-03-08T21:03:49.166Z,11.68
2023-03-08T21:06:19.826Z,14.30
2023-03-08T21:08:48.212Z,13.60
2023-03-08T21:11:15.600Z,12.32
2023-03-08T21:13:43.349Z,13.15
2023-03-08T21:16:19.256Z,11.60
2023-03-08T21:18:54.782Z,11.52
2023-03-08T21:21:35.434Z,11.18
2023-03-08T21:24:14.688Z,13.00
2023-03-08T21:26:43.239Z,12.57
2023-03-08T21:29:16.202Z,13.30
2023-03-08T21:31:48.063Z,12.25
2023-03-08T21:34:15.522Z,13.30
2023-03-08T21:36:43.248Z,11.85
2023-03-08T21:39:11.821Z,12.32
2023-03-08T21:41:41.277Z,13.18
2023-03-08T21:44:12.591Z,13.20
2023-03-08T21:46:40.547Z,13.13
2023-03-08T21:49:11.434Z,10.55
2023-03-08T21:51:38.588Z,12.38
2023-03-08T21:54:06.048Z,11.52
2023-03-08T21:56:35.575Z,12.70
2023-03-08T21:59:03.441Z,11.90
2023-03-08T22:01:31.596Z,11.10
2023-03-08T22:04:00.701Z,11.02
2023-03-08T22:06:28.918Z,11.82
2023-03-08T22:08:56.212Z,11.40
2023-03-08T22:11:24.466Z,11.00
2023-03-08T22:13:59.042Z,10.93
2023-03-08T22:16:27.477Z,11.52
2023-03-08T22:18:57.473Z,12.50
2023-03-08T22:21:24.956Z,10.38
2023-03-08T22:23:53.609Z,10.63
2023-03-08T22:26:22.380Z,10.35
2023-03-08T22:28:49.601Z,9.80
2023-03-08T22:31:22.700Z,10.25
2023-03-08T22:33:50.543Z,10.15
2023-03-08T22:36:19.090Z,10.38
2023-03-08T22:38:46.616Z,9.50
2023-03-08T22:41:24.801Z,9.57
2023-03-08T22:43:52.892Z,10.07
2023-03-08T22:46:22.593Z,9.52
2023-03-08T22:48:51.044Z,9.65
2023-03-08T22:51:19.803Z,10.10
2023-03-08T22:53:47.153Z,10.45
2023-03-08T22:56:21.944Z,10.60
2023-03-08T22:58:49.799Z,10.05
2023-03-08T23:01:20.103Z,8.80
2023-03-08T23:03:49.484Z,10.00
2023-03-08T23:06:17.972Z,10.52
2023-03-08T23:08:45.984Z,10.75
2023-03-08T23:11:13.390Z,10.52
2023-03-08T23:13:41.230Z,9.70
2023-03-08T23:16:11.271Z,10.68
2023-03-08T23:18:38.547Z,10.82
2023-03-08T23:21:08.486Z,10.50
2023-03-08T23:23:35.640Z,10.80
2023-03-08T23:26:08.688Z,10.13
2023-03-08T23:28:36.382Z,11.07
2023-03-08T23:31:09.877Z,11.73
2023-03-08T23:33:37.056Z,9.68
2023-03-08T23:36:04.624Z,9.75
2023-03-08T23:38:32.920Z,11.63
2023-03-08T23:41:04.794Z,11.00
2023-03-08T23:43:32.570Z,10.70
2023-03-08T23:45:59.887Z,10.43
2023-03-08T23:48:27.123Z,10.75
2023-03-08T23:50:55.001Z,11.35
2023-03-08T23:53:22.060Z,10.48
2023-03-08T23:55:49.127Z,10.52
2023-03-08T23:58:16.205Z,10.38
